createdAt,value
2022-11-07T00:03:10.944Z,10.56
2022-11-07T00:08:14.994Z,10.52
2022-11-07T00:13:19.148Z,10.57
2022-11-07T00:18:23.312Z,10.59
2022-11-07T00:23:27.433Z,10.52
2022-11-07T00:28:31.710Z,10.54
2022-11-07T00:33:35.774Z,10.51
2022-11-07T00:38:39.950Z,10.47
2022-11-07T00:43:44.119Z,10.46
2022-11-07T00:48:46.356Z,10.45
2022-11-07T00:53:50.550Z,10.45
2022-11-07T00:58:54.675Z,10.49
2022-11-07T01:03:58.859Z,10.53
2022-11-07T01:09:03.428Z,10.54
2022-11-07T01:14:07.169Z,10.53
2022-11-07T01:19:09.493Z,10.50
2022-11-07T01:24:13.628Z,10.49
2022-11-07T01:29:17.753Z,10.38
2022-11-07T01:34:21.941Z,10.36
2022-11-07T01:39:26.066Z,10.23
2022-11-07T01:44:30.275Z,10.23
2022-11-07T01:49:34.401Z,10.18
2022-11-07T01:54:38.580Z,10.11
2022-11-07T01:59:42.735Z,10.04
2022-11-07T02:04:46.914Z,10.03
2022-11-07T02:09:51.052Z,10.00
2022-11-07T02:14:55.226Z,9.98
2022-11-07T02:19:59.399Z,9.93
2022-11-07T02:25:03.559Z,9.96
2022-11-07T02:30:07.699Z,10.00
2022-11-07T02:35:11.886Z,9.97
2022-11-07T02:40:16.047Z,9.97
2022-11-07T02:45:20.182Z,10.00
2022-11-07T02:50:24.359Z,10.09
2022-11-07T02:55:28.515Z,10.15
2022-11-07T03:00:32.666Z,10.18
2022-11-07T03:05:36.853Z,10.20
2022-11-07T03:10:40.993Z,10.22
2022-11-07T03:15:45.138Z,10.28
2022-11-07T03:20:49.330Z,10.36
2022-11-07T03:25:53.469Z,10.46
2022-11-07T03:30:57.623Z,10.39
2022-11-07T03:36:01.828Z,10.35
2022-11-07T03:41:05.955Z,10.29
2022-11-07T03:46:10.148Z,10.35
2022-11-07T03:51:14.266Z,10.29
2022-11-07T03:56:18.588Z,10.34
2022-11-07T04:01:22.762Z,10.36
2022-11-07T04:06:26.766Z,10.28
2022-11-07T04:11:30.901Z,10.36
2022-11-07T04:16:35.084Z,10.41
2022-11-07T04:21:39.263Z,10.34
2022-11-07T04:26:43.387Z,10.39
2022-11-07T04:31:47.580Z,10.36
2022-11-07T04:36:51.731Z,10.42
2022-11-07T04:41:55.904Z,10.39
2022-11-07T04:47:00.071Z,10.38
2022-11-07T04:52:04.229Z,10.36
2022-11-07T04:57:08.409Z,10.32
2022-11-07T05:02:12.646Z,10.32
2022-11-07T05:07:16.717Z,10.36
2022-11-07T05:12:20.874Z,10.30
2022-11-07T05:17:27.965Z,10.22
2022-11-07T05:22:29.176Z,10.24
2022-11-07T05:27:33.338Z,10.21
2022-11-07T05:32:37.524Z,10.27
2022-11-07T05:37:41.687Z,10.25
2022-11-07T05:42:45.847Z,10.31
2022-11-07T05:47:49.979Z,10.26
2022-11-07T05:52:54.218Z,10.28
2022-11-07T05:57:59.864Z,10.23
2022-11-07T06:03:02.551Z,10.27
2022-11-07T06:08:06.634Z,10.31
2022-11-07T06:13:10.792Z,10.36
2022-11-07T06:18:14.951Z,10.48
2022-11-07T06:23:19.534Z,10.50
2022-11-07T06:28:23.297Z,10.55
2022-11-07T06:33:27.463Z,10.61
2022-11-07T06:38:31.613Z,10.70
2022-11-07T06:43:35.777Z,10.83
2022-11-07T06:48:38.036Z,10.90
2022-11-07T06:53:42.180Z,10.88
2022-11-07T06:58:46.335Z,11.00
2022-11-07T07:03:50.498Z,11.14
2022-11-07T07:08:54.679Z,11.18
2022-11-07T07:14:02.383Z,11.32
2022-11-07T07:19:03.009Z,11.33
2022-11-07T07:24:07.149Z,11.43
2022-11-07T07:29:11.333Z,11.44
2022-11-07T07:34:15.481Z,11.50
2022-11-07T07:39:19.622Z,11.59
2022-11-07T07:44:23.841Z,11.65
2022-11-07T07:49:28.198Z,11.65
2022-11-07T07:54:32.126Z,11.72
2022-11-07T07:59:36.288Z,11.80
2022-11-07T08:04:40.468Z,11.89
2022-11-07T08:09:44.599Z,12.00
2022-11-07T08:14:48.752Z,12.10
2022-11-07T08:19:52.957Z,12.18
2022-11-07T08:24:57.075Z,12.30
2022-11-07T08:30:01.269Z,12.39
2022-11-07T08:35:05.437Z,12.41
2022-11-07T08:40:09.569Z,12.39
2022-11-07T08:45:13.760Z,12.43
2022-11-07T08:50:17.972Z,12.45
2022-11-07T08:55:22.156Z,12.50
2022-11-07T09:00:26.225Z,12.61
2022-11-07T09:05:30.382Z,12.69
2022-11-07T09:10:34.551Z,12.78
2022-11-07T09:15:38.696Z,12.87
2022-11-07T09:20:42.886Z,12.92
2022-11-07T09:25:47.033Z,12.95
2022-11-07T09:30:51.350Z,13.13
2022-11-07T09:35:55.336Z,13.30
2022-11-07T09:40:59.508Z,13.41
2022-11-07T09:46:03.671Z,13.47
2022-11-07T09:51:07.819Z,13.44
2022-11-07T09:56:12.081Z,13.37
2022-11-07T10:01:16.258Z,13.18
2022-11-07T10:06:24.096Z,13.13
2022-11-07T10:11:24.483Z,12.86
2022-11-07T10:16:28.613Z,12.72
2022-11-07T10:21:38.183Z,12.68
2022-11-07T10:26:36.925Z,12.60
2022-11-07T10:31:41.101Z,12.43
2022-11-07T10:36:45.280Z,12.32
2022-11-07T10:41:49.541Z,12.19
2022-11-07T10:46:54.873Z,12.12
2022-11-07T10:51:57.757Z,12.05
2022-11-07T10:57:01.927Z,12.00
2022-11-07T11:02:06.116Z,12.11
2022-11-07T11:07:10.213Z,12.33
2022-11-07T11:12:14.414Z,12.36
2022-11-07T11:17:18.612Z,12.41
2022-11-07T11:22:22.783Z,12.58
2022-11-07T11:27:26.886Z,12.67
2022-11-07T11:32:31.069Z,12.77
2022-11-07T11:37:35.177Z,12.84
2022-11-07T11:42:39.358Z,13.00
2022-11-07T11:47:43.530Z,13.21
2022-11-07T11:52:47.698Z,13.25
2022-11-07T11:57:51.815Z,13.27
2022-11-07T12:02:55.966Z,13.24
2022-11-07T12:08:00.246Z,13.27
2022-11-07T12:13:04.300Z,13.20
2022-11-07T12:18:06.588Z,13.17
2022-11-07T12:23:10.751Z,13.20
2022-11-07T12:28:14.909Z,13.22
2022-11-07T12:33:19.352Z,13.31
2022-11-07T12:38:23.224Z,13.55
2022-11-07T12:43:27.381Z,13.75
2022-11-07T12:48:31.572Z,14.05
2022-11-07T12:53:35.727Z,14.19
2022-11-07T12:58:39.850Z,14.38
2022-11-07T13:03:44.011Z,14.42
2022-11-07T13:08:48.212Z,14.40
2022-11-07T13:13:52.360Z,14.54
2022-11-07T13:18:56.512Z,14.40
2022-11-07T13:24:00.645Z,14.28
2022-11-07T13:29:04.837Z,14.19
2022-11-07T13:34:09.000Z,14.15
2022-11-07T13:39:13.162Z,14.10
2022-11-07T13:44:17.310Z,14.05
2022-11-07T13:49:21.437Z,14.05
2022-11-07T13:54:25.597Z,14.02
2022-11-07T13:59:33.902Z,13.98
2022-11-07T14:04:40.514Z,13.98
2022-11-07T14:09:38.116Z,14.01
2022-11-07T14:14:42.275Z,13.97
2022-11-07T14:19:46.415Z,13.97
2022-11-07T14:24:50.599Z,13.96
2022-11-07T14:29:54.775Z,13.97
2022-11-07T14:34:58.915Z,13.98
2022-11-07T14:40:03.181Z,13.93
2022-11-07T14:45:07.235Z,13.92
2022-11-07T14:50:11.373Z,13.96
2022-11-07T14:55:15.549Z,13.97
2022-11-07T15:00:19.694Z,13.93
2022-11-07T15:10:28.006Z,13.78
2022-11-07T15:15:32.199Z,13.76
2022-11-07T15:20:36.319Z,13.74
2022-11-07T15:25:40.494Z,13.74
2022-11-07T15:30:44.685Z,13.79
2022-11-07T15:35:48.840Z,13.72
2022-11-07T15:40:52.971Z,13.68
2022-11-07T15:45:57.147Z,13.64
2022-11-07T15:51:01.302Z,13.61
2022-11-07T15:56:05.573Z,13.57
2022-11-07T16:01:09.659Z,13.52
2022-11-07T16:06:13.771Z,13.48
2022-11-07T16:11:17.958Z,13.46
2022-11-07T16:16:22.114Z,13.51
2022-11-07T16:21:26.255Z,13.53
2022-11-07T16:26:30.449Z,13.57
2022-11-07T16:31:34.562Z,13.60
2022-11-07T16:36:38.766Z,13.60
2022-11-07T16:41:42.891Z,13.58
2022-11-07T16:46:47.085Z,13.61
2022-11-07T16:51:51.249Z,13.61
2022-11-07T16:56:55.383Z,13.61
2022-11-07T17:01:59.597Z,13.62
2022-11-07T17:07:03.691Z,13.60
2022-11-07T17:12:07.896Z,13.69
2022-11-07T17:17:12.011Z,13.69
2022-11-07T17:22:16.216Z,13.70
2022-11-07T17:27:20.346Z,13.68
2022-11-07T17:32:24.526Z,13.70
2022-11-07T17:37:28.669Z,13.70
2022-11-07T17:42:37.581Z,13.74
2022-11-07T17:47:35.092Z,13.69
2022-11-07T17:52:39.280Z,13.66
2022-11-07T17:57:43.475Z,13.68
2022-11-07T18:02:47.810Z,13.69
2022-11-07T18:07:51.738Z,13.66
2022-11-07T18:12:55.902Z,13.66
2022-11-07T18:17:58.168Z,13.61
2022-11-07T18:23:02.325Z,13.66
2022-11-07T18:28:06.475Z,13.62
2022-11-07T18:33:10.636Z,13.60
2022-11-07T18:38:15.239Z,13.66
2022-11-07T18:43:20.931Z,13.68
2022-11-07T18:48:23.125Z,13.70
2022-11-07T18:53:27.281Z,13.70
2022-11-07T18:58:31.461Z,13.68
2022-11-07T19:03:35.579Z,13.66
2022-11-07T19:08:39.778Z,13.66
2022-11-07T19:13:43.908Z,13.65
2022-11-07T19:18:49.376Z,13.61
2022-11-07T19:23:52.252Z,13.61
2022-11-07T19:28:56.415Z,13.62
2022-11-07T19:34:00.553Z,13.62
2022-11-07T19:39:04.879Z,13.61
2022-11-07T19:44:08.891Z,13.58
2022-11-07T19:49:13.040Z,13.60
2022-11-07T19:54:17.200Z,13.62
2022-11-07T19:59:21.346Z,13.68
2022-11-07T20:04:25.518Z,13.70
2022-11-07T20:09:29.719Z,13.67
2022-11-07T20:14:33.838Z,13.71
2022-11-07T20:19:38.030Z,13.72
2022-11-07T20:24:42.175Z,13.69
2022-11-07T20:29:46.332Z,13.68
2022-11-07T20:34:53.832Z,13.68
2022-11-07T20:39:54.686Z,13.66
2022-11-07T20:44:58.794Z,13.61
2022-11-07T20:50:02.978Z,13.51
2022-11-07T20:55:07.110Z,13.47
2022-11-07T21:00:11.299Z,13.45
2022-11-07T21:05:18.079Z,13.38
2022-11-07T21:10:19.609Z,13.31
2022-11-07T21:15:23.752Z,13.29
2022-11-07T21:20:27.944Z,13.18
2022-11-07T21:25:32.089Z,13.23
2022-11-07T21:30:36.222Z,13.13
2022-11-07T21:35:40.418Z,13.04
2022-11-07T21:40:44.555Z,12.94
2022-11-07T21:45:48.741Z,12.97
2022-11-07T21:50:52.866Z,12.93
2022-11-07T21:55:57.052Z,12.88
2022-11-07T22:01:01.270Z,12.88
2022-11-07T22:06:05.371Z,12.84
2022-11-07T22:11:09.501Z,12.80
2022-11-07T22:16:13.803Z,12.69
2022-11-07T22:21:17.832Z,12.65
2022-11-07T22:26:21.999Z,12.67
2022-11-07T22:31:26.183Z,12.66
2022-11-07T22:36:30.306Z,12.56
2022-11-07T22:41:34.501Z,12.53
2022-11-07T22:46:38.654Z,12.41
2022-11-07T22:51:42.794Z,12.34
2022-11-07T22:56:46.968Z,12.27
2022-11-07T23:01:51.291Z,12.20
2022-11-07T23:06:55.261Z,12.17
2022-11-07T23:11:59.449Z,12.14
2022-11-07T23:17:03.597Z,12.11
2022-11-07T23:22:07.782Z,12.03
2022-11-07T23:27:11.920Z,11.99
2022-11-07T23:32:16.097Z,11.90
2022-11-07T23:37:20.238Z,11.86
2022-11-07T23:42:24.416Z,11.84
2022-11-07T23:47:26.684Z,11.80
2022-11-07T23:52:30.849Z,11.72
2022-11-07T23:57:35.006Z,11.62
